Aérodrome :
LOGIN :

S'inscrire | Disclaimer

   EN    FR    IT 

 










Légende :    VFR   VFR Marginal   IFR   IFR Intensif   IFR Très Intensif
Visi : 
Plafond : 
>= 8 km
>= 3000ft
5 à 8 km
1000 à 3000 ft
1500m à 5 km
500 à 1000 ft
800 à 1500m
200 à 500 ft
< 800m
< 200 ft
Symboles :   Orages  Brouillard  Fortes neiges  Fortes précipitations  Vent > 20 kt
SIGMETs :   Divers  Orages  Givrage  Turbulence  Onde Orograph.  Cendres Volcan.







- Altitude de l'aérodrome : 1090 ft
- Code IATA : CFE
- Voir les cartes d'approche


LFLC - Clermont-Ferrand Auvergne

DERNIER METAR :
  • 210100Z AUTO 00000KT CAVOK 13/09 Q1013 NOSIG

METARs EXPIRÉS :
  • 210030Z AUTO VRB02KT CAVOK 13/09 Q1014 NOSIG
  • 210000Z AUTO 17003KT 090V240 9999 SCT066 BKN076 13/09 Q1014 NOSIG
  • 202330Z AUTO 17005KT 140V200 9999 BKN062 BKN074 BKN180 13/09 Q1014 NOSIG
  • 202300Z AUTO 17005KT 130V220 CAVOK 14/09 Q1014 NOSIG
  • 202230Z AUTO VRB03KT CAVOK 14/09 Q1014 NOSIG

TAF TAF LFLC
Valide du 20 à 21h jusqu'au 21 à 21h UTC


202000Z 2021/2121 36005KT CAVOK
BECMG 2021/2023 VRB03KT
BECMG 2103/2106 18005KT
PROB40
TEMPO 2116/2121 VRB10KT SHRA BKN050TCU
ATIS : +33 4 73 62 74 38
Pas de NOTAMs connus pour ce terrain.



MET'MAP, la Météo Aéronautique d'un coup d'oeil ! - Copyright ORBIFLY Décembre 2007 - Disclaimer

ORBIFLY MET'MAP TEAM :

Programmation & Développement : Alexandra Zaïnal
Conception & Développement : Baudouin d'Aumeries
Co-Programmation & Développement : Marc-Olivier Méhu
Soutien technique & logistique : Manuel Goepfert

Contact : metmap@orbifly.com




SOURCES & CREDITS :

   NOAA